createdAt,value
2019-02-14T00:01:43.953Z,88.40
2019-02-14T00:05:52.166Z,88.60
2019-02-14T00:10:00.390Z,88.60
2019-02-14T00:14:08.607Z,88.60
2019-02-14T00:18:16.737Z,88.70
2019-02-14T00:22:24.890Z,88.70
2019-02-14T00:26:33.111Z,88.50
2019-02-14T00:30:41.289Z,88.70
2019-02-14T00:34:49.446Z,88.80
2019-02-14T00:38:57.609Z,88.70
2019-02-14T00:43:05.743Z,88.60
2019-02-14T00:47:13.888Z,88.60
2019-02-14T00:51:22.034Z,88.60
2019-02-14T00:55:30.222Z,88.60
2019-02-14T00:59:38.420Z,88.80
2019-02-14T01:03:46.570Z,88.60
2019-02-14T01:07:54.710Z,88.50
2019-02-14T01:12:02.858Z,88.30
2019-02-14T01:16:10.997Z,88.40
2019-02-14T01:20:19.126Z,88.40
2019-02-14T01:24:27.334Z,88.40
2019-02-14T01:28:35.481Z,88.20
2019-02-14T01:32:43.621Z,88.00
2019-02-14T01:36:51.771Z,87.90
2019-02-14T01:40:59.965Z,88.00
2019-02-14T01:45:10.042Z,88.00
2019-02-14T01:49:18.169Z,87.90
2019-02-14T01:53:26.324Z,87.90
2019-02-14T01:57:34.506Z,87.90
2019-02-14T02:01:42.745Z,88.90
2019-02-14T02:05:51.165Z,87.90
2019-02-14T02:09:59.009Z,87.80
2019-02-14T02:14:07.141Z,87.70
2019-02-14T02:18:15.246Z,87.70
2019-02-14T02:22:23.370Z,87.40
2019-02-14T02:26:31.496Z,87.30
2019-02-14T02:30:39.606Z,87.10
2019-02-14T02:34:47.705Z,87.00
2019-02-14T02:38:55.809Z,86.90
2019-02-14T02:43:03.932Z,87.00
2019-02-14T02:47:12.058Z,87.10
2019-02-14T02:51:20.267Z,87.10
2019-02-14T02:55:28.386Z,87.00
2019-02-14T02:59:36.496Z,87.20
2019-02-14T03:03:44.619Z,87.30
2019-02-14T03:07:52.757Z,87.20
2019-02-14T03:12:00.877Z,87.00
2019-02-14T03:16:09.067Z,86.90
2019-02-14T03:20:17.182Z,87.00
2019-02-14T03:24:25.286Z,87.10
2019-02-14T03:28:33.402Z,87.10
2019-02-14T03:32:41.571Z,87.30
2019-02-14T03:36:49.723Z,87.50
2019-02-14T03:40:57.860Z,87.30
2019-02-14T03:45:07.978Z,87.30
2019-02-14T03:49:16.167Z,87.30
2019-02-14T03:53:24.329Z,87.40
2019-02-14T03:57:32.454Z,87.50
2019-02-14T04:01:40.569Z,87.60
2019-02-14T04:05:48.681Z,87.60
2019-02-14T04:09:56.802Z,87.70
2019-02-14T04:14:04.913Z,87.90
2019-02-14T04:18:13.078Z,87.90
2019-02-14T04:22:21.191Z,88.00
2019-02-14T04:26:29.302Z,87.80
2019-02-14T04:30:37.402Z,88.00
2019-02-14T04:34:45.542Z,88.00
2019-02-14T04:38:53.685Z,87.90
2019-02-14T04:43:01.857Z,88.10
2019-02-14T04:47:09.973Z,88.30
2019-02-14T04:51:18.079Z,88.20
2019-02-14T04:55:26.190Z,88.20
2019-02-14T04:59:34.338Z,88.40
2019-02-14T05:03:42.489Z,88.50
2019-02-14T05:07:50.622Z,88.30
2019-02-14T05:11:58.733Z,88.20
2019-02-14T05:16:06.846Z,88.40
2019-02-14T05:20:14.956Z,88.30
2019-02-14T05:24:23.125Z,88.50
2019-02-14T05:28:31.287Z,88.60
2019-02-14T05:32:39.435Z,88.60
2019-02-14T05:36:52.644Z,88.70
2019-02-14T05:40:55.676Z,88.80
2019-02-14T05:45:04.093Z,88.70
2019-02-14T05:49:12.206Z,88.80
2019-02-14T05:53:20.366Z,89.00
2019-02-14T05:57:38.262Z,89.00
2019-02-14T06:01:46.374Z,89.10
2019-02-14T06:05:54.485Z,89.10
2019-02-14T06:10:02.645Z,89.10
2019-02-14T06:14:10.754Z,89.00
2019-02-14T06:18:18.870Z,89.00
2019-02-14T06:22:27.001Z,89.10
2019-02-14T06:26:35.125Z,89.30
2019-02-14T06:30:43.236Z,90.00
2019-02-14T06:34:51.346Z,89.20
2019-02-14T06:38:59.462Z,89.10
2019-02-14T06:43:07.650Z,89.10
2019-02-14T06:47:15.816Z,89.30
2019-02-14T06:51:23.897Z,89.20
2019-02-14T06:55:32.060Z,89.30
2019-02-14T06:59:40.173Z,89.30
2019-02-14T07:03:48.306Z,89.40
2019-02-14T07:07:56.534Z,89.30
2019-02-14T07:12:04.698Z,89.30
2019-02-14T07:16:12.831Z,89.30
2019-02-14T07:20:20.969Z,89.20
2019-02-14T07:24:29.183Z,89.10
2019-02-14T07:28:37.302Z,89.20
2019-02-14T07:32:45.425Z,89.10
2019-02-14T07:36:53.596Z,89.00
2019-02-14T07:41:01.706Z,88.90
2019-02-14T07:45:11.250Z,88.90
2019-02-14T07:49:19.363Z,88.90
2019-02-14T07:53:27.517Z,88.20
2019-02-14T07:57:35.662Z,88.40
2019-02-14T08:01:43.772Z,88.20
2019-02-14T08:05:51.913Z,88.00
2019-02-14T08:10:00.029Z,87.70
2019-02-14T08:14:08.205Z,87.70
2019-02-14T08:18:16.365Z,87.50
2019-02-14T08:22:24.573Z,87.20
2019-02-14T08:26:32.689Z,86.80
2019-02-14T08:30:40.813Z,86.50
2019-02-14T08:34:48.930Z,86.20
2019-02-14T08:38:57.103Z,85.80
2019-02-14T08:43:05.260Z,85.50
2019-02-14T08:47:13.389Z,85.30
2019-02-14T08:51:21.492Z,85.20
2019-02-14T08:55:29.609Z,84.40
2019-02-14T08:59:37.711Z,83.60
2019-02-14T09:03:45.834Z,83.00
2019-02-14T09:07:55.100Z,82.10
2019-02-14T09:12:02.094Z,81.80
2019-02-14T09:16:10.203Z,81.20
2019-02-14T09:20:18.337Z,80.20
2019-02-14T09:24:26.437Z,79.40
2019-02-14T09:28:34.573Z,78.70
2019-02-14T09:32:42.722Z,78.00
2019-02-14T09:36:50.929Z,77.20
2019-02-14T09:40:59.039Z,76.50
2019-02-14T09:45:08.132Z,75.70
2019-02-14T09:49:16.269Z,74.90
2019-02-14T09:53:24.390Z,74.20
2019-02-14T09:57:32.527Z,73.20
2019-02-14T10:01:40.649Z,72.30
2019-02-14T10:05:48.774Z,71.40
2019-02-14T10:09:56.942Z,70.60
2019-02-14T10:14:05.050Z,70.00
2019-02-14T10:18:13.222Z,69.30
2019-02-14T10:22:21.359Z,68.30
2019-02-14T10:26:29.548Z,67.40
2019-02-14T10:30:37.737Z,66.50
2019-02-14T10:34:45.935Z,65.70
2019-02-14T10:38:54.074Z,65.50
2019-02-14T10:43:02.235Z,64.70
2019-02-14T10:47:10.454Z,63.70
2019-02-14T10:51:18.598Z,62.40
2019-02-14T10:55:26.729Z,61.90
2019-02-14T10:59:34.877Z,61.10
2019-02-14T11:03:43.046Z,60.50
2019-02-14T11:07:51.266Z,59.60
2019-02-14T11:11:59.418Z,59.60
2019-02-14T11:16:09.623Z,57.60
2019-02-14T11:20:17.841Z,55.90
2019-02-14T11:24:23.963Z,54.50
2019-02-14T11:28:32.192Z,53.20
2019-02-14T11:32:40.339Z,52.00
2019-02-14T11:36:48.461Z,51.30
2019-02-14T11:40:56.589Z,50.60
2019-02-14T11:45:05.074Z,49.00
2019-02-14T11:49:13.192Z,45.20
2019-02-14T11:53:21.349Z,40.20
2019-02-14T11:57:29.476Z,33.30
2019-02-14T12:01:37.621Z,28.00
2019-02-14T12:05:45.733Z,27.30
2019-02-14T12:09:53.852Z,28.50
2019-02-14T12:14:01.960Z,26.90
2019-02-14T12:18:10.109Z,25.90
2019-02-14T12:22:18.217Z,25.90
2019-02-14T12:26:26.321Z,25.70
2019-02-14T12:30:34.414Z,24.90
2019-02-14T12:34:42.537Z,24.00
2019-02-14T12:38:50.687Z,23.60
2019-02-14T12:42:58.861Z,22.70
2019-02-14T12:47:06.969Z,22.30
2019-02-14T12:51:15.074Z,24.60
2019-02-14T12:55:23.181Z,26.90
2019-02-14T12:59:31.353Z,24.80
2019-02-14T13:03:39.482Z,25.80
2019-02-14T13:07:47.613Z,23.90
2019-02-14T13:11:55.705Z,22.90
2019-02-14T13:16:03.826Z,21.00
2019-02-14T13:20:11.950Z,22.50
2019-02-14T13:24:20.077Z,22.80
2019-02-14T13:28:28.245Z,21.10
2019-02-14T13:32:36.385Z,20.70
2019-02-14T13:36:44.489Z,20.80
2019-02-14T13:40:54.593Z,24.10
2019-02-14T13:45:00.699Z,22.90
2019-02-14T13:49:08.845Z,23.50
2019-02-14T13:53:16.976Z,23.60
2019-02-14T13:57:25.072Z,24.70
2019-02-14T14:01:33.177Z,25.60
2019-02-14T14:05:41.285Z,23.90
2019-02-14T14:09:49.382Z,25.00
2019-02-14T14:13:57.495Z,25.60
2019-02-14T14:18:05.641Z,25.80
2019-02-14T14:22:13.750Z,23.70
2019-02-14T14:26:21.862Z,26.90
2019-02-14T14:30:29.957Z,27.50
2019-02-14T14:34:38.165Z,24.50
2019-02-14T14:38:46.333Z,24.20
2019-02-14T14:42:59.757Z,27.40
2019-02-14T14:47:12.321Z,29.20
2019-02-14T14:51:20.590Z,30.00
2019-02-14T14:55:28.731Z,30.60
2019-02-14T14:59:36.830Z,31.30
2019-02-14T15:03:45.014Z,33.00
2019-02-14T15:07:53.143Z,33.10
2019-02-14T15:12:01.403Z,33.50
2019-02-14T15:16:09.590Z,33.80
2019-02-14T15:20:17.801Z,34.90
2019-02-14T15:24:25.917Z,37.20
2019-02-14T15:28:34.018Z,38.70
2019-02-14T15:32:42.192Z,38.10
2019-02-14T15:36:51.815Z,39.00
2019-02-14T15:40:58.469Z,40.20
2019-02-14T15:45:06.594Z,40.80
2019-02-14T15:49:14.705Z,40.30
2019-02-14T15:53:22.834Z,40.20
2019-02-14T15:57:30.950Z,40.80
2019-02-14T16:01:39.718Z,41.30
2019-02-14T16:05:47.226Z,41.40
2019-02-14T16:09:55.368Z,43.10
2019-02-14T16:14:03.461Z,45.10
2019-02-14T16:18:11.685Z,46.30
2019-02-14T16:22:19.804Z,47.60
2019-02-14T16:26:27.991Z,47.80
2019-02-14T16:30:36.095Z,48.10
2019-02-14T16:34:44.194Z,48.60
2019-02-14T16:38:52.317Z,49.00
2019-02-14T16:43:00.436Z,49.50
2019-02-14T16:47:08.581Z,50.30
2019-02-14T16:51:16.755Z,51.20
2019-02-14T16:55:24.954Z,51.40
2019-02-14T16:59:33.179Z,52.00
2019-02-14T17:03:41.394Z,52.30
2019-02-14T17:07:49.567Z,52.50
2019-02-14T17:11:57.702Z,53.20
2019-02-14T17:16:05.815Z,53.90
2019-02-14T17:20:13.925Z,54.80
2019-02-14T17:24:22.036Z,55.70
2019-02-14T17:28:30.183Z,55.90
2019-02-14T17:32:38.346Z,56.80
2019-02-14T17:36:46.487Z,56.80
2019-02-14T17:40:54.609Z,56.70
2019-02-14T17:45:02.726Z,56.60
2019-02-14T17:49:11.202Z,57.10
2019-02-14T17:53:19.470Z,57.60
2019-02-14T17:57:27.634Z,57.20
2019-02-14T18:01:35.738Z,57.80
2019-02-14T18:05:43.841Z,58.30
2019-02-14T18:09:51.947Z,58.30
2019-02-14T18:14:00.073Z,58.40
2019-02-14T18:18:08.196Z,59.30
2019-02-14T18:22:16.290Z,59.50
2019-02-14T18:26:24.385Z,59.50
2019-02-14T18:30:32.486Z,59.90
2019-02-14T18:34:40.827Z,59.70
2019-02-14T18:38:48.913Z,59.70
2019-02-14T18:42:57.033Z,60.00
2019-02-14T18:47:05.125Z,60.50
2019-02-14T18:51:13.273Z,60.90
2019-02-14T18:55:21.363Z,61.40
2019-02-14T18:59:29.468Z,61.20
2019-02-14T19:03:37.568Z,61.00
2019-02-14T19:07:45.722Z,60.90
2019-02-14T19:11:53.826Z,61.10
2019-02-14T19:16:01.925Z,61.90
2019-02-14T19:20:10.037Z,62.20
2019-02-14T19:24:18.801Z,62.10
2019-02-14T19:28:26.288Z,62.20
2019-02-14T19:32:34.407Z,62.80
2019-02-14T19:36:42.505Z,63.20
2019-02-14T19:40:50.702Z,63.50
2019-02-14T19:44:58.802Z,63.40
2019-02-14T19:49:06.982Z,63.40
2019-02-14T19:53:15.103Z,64.10
2019-02-14T19:57:23.303Z,63.70
2019-02-14T20:01:31.379Z,64.20
2019-02-14T20:05:39.478Z,64.70
2019-02-14T20:09:47.571Z,64.60
2019-02-14T20:13:55.692Z,64.90
2019-02-14T20:18:03.809Z,65.10
2019-02-14T20:22:11.910Z,65.40
2019-02-14T20:26:20.021Z,66.10
2019-02-14T20:30:28.201Z,66.10
2019-02-14T20:34:36.305Z,66.80
2019-02-14T20:38:44.421Z,66.70
2019-02-14T20:42:52.533Z,66.40
2019-02-14T20:47:00.631Z,66.60
2019-02-14T20:51:08.762Z,67.60
2019-02-14T20:55:17.153Z,67.50
2019-02-14T20:59:25.272Z,67.50
2019-02-14T21:03:33.377Z,68.20
2019-02-14T21:07:41.518Z,68.80
2019-02-14T21:11:54.745Z,68.70
2019-02-14T21:15:57.705Z,68.90
2019-02-14T21:20:06.365Z,68.40
2019-02-14T21:24:14.461Z,68.60
2019-02-14T21:28:22.641Z,68.80
2019-02-14T21:32:30.760Z,68.90
2019-02-14T21:36:38.854Z,69.40
2019-02-14T21:40:46.947Z,69.30
2019-02-14T21:44:55.056Z,69.80
2019-02-14T21:49:03.162Z,70.30
2019-02-14T21:53:11.356Z,70.30
2019-02-14T21:57:19.470Z,71.00
2019-02-14T22:01:27.582Z,71.30
2019-02-14T22:05:35.787Z,70.80
2019-02-14T22:09:43.926Z,70.60
2019-02-14T22:13:52.083Z,70.70
2019-02-14T22:18:00.211Z,71.40
2019-02-14T22:22:08.293Z,71.50
2019-02-14T22:26:16.398Z,71.30
2019-02-14T22:30:24.502Z,71.50
2019-02-14T22:34:32.688Z,72.20
2019-02-14T22:38:40.810Z,72.30
2019-02-14T22:42:48.905Z,72.80
2019-02-14T22:46:57.010Z,73.40
2019-02-14T22:51:05.109Z,73.80
2019-02-14T22:55:13.232Z,74.00
2019-02-14T22:59:21.357Z,74.30
2019-02-14T23:03:29.499Z,74.30
2019-02-14T23:07:37.617Z,74.40
2019-02-14T23:11:45.708Z,74.50
2019-02-14T23:15:53.810Z,74.60
2019-02-14T23:20:01.928Z,74.60
2019-02-14T23:24:10.019Z,74.80
2019-02-14T23:28:18.141Z,75.00
2019-02-14T23:32:27.126Z,75.10
2019-02-14T23:36:34.365Z,75.90
2019-02-14T23:40:42.465Z,76.20
2019-02-14T23:44:50.583Z,76.50
2019-02-14T23:48:58.700Z,76.80
2019-02-14T23:53:06.822Z,77.10
2019-02-14T23:57:14.936Z,77.20
